createdAt,value
2023-06-11T00:00:58.980Z,8.61
2023-06-11T00:11:22.967Z,8.46
2023-06-11T00:21:26.442Z,8.48
2023-06-11T00:31:28.827Z,8.58
2023-06-11T00:41:32.652Z,8.51
2023-06-11T00:51:35.984Z,8.40
2023-06-11T01:01:47.226Z,8.28
2023-06-11T01:11:56.454Z,8.22
2023-06-11T01:22:05.300Z,8.23
2023-06-11T01:32:08.345Z,8.12
2023-06-11T07:59:16.809Z,22.64
2023-06-11T08:09:19.258Z,23.10
2023-06-11T08:19:21.892Z,23.23
2023-06-11T08:29:24.394Z,23.52
2023-06-11T08:39:27.189Z,23.03
2023-06-11T08:49:31.784Z,23.05
2023-06-11T08:59:34.193Z,22.76
2023-06-11T09:09:37.178Z,22.61
2023-06-11T09:19:39.644Z,23.12
2023-06-11T09:29:45.365Z,23.15
2023-06-11T09:39:48.660Z,23.21
2023-06-11T09:49:52.386Z,23.43
2023-06-11T09:59:55.324Z,22.96
2023-06-11T10:09:58.092Z,22.74
2023-06-11T10:20:00.819Z,23.17
2023-06-11T10:30:03.911Z,23.18
2023-06-11T10:40:07.434Z,23.75
2023-06-11T10:50:13.150Z,23.95
2023-06-11T11:00:15.847Z,23.44
2023-06-11T11:10:20.890Z,22.80
2023-06-11T11:20:23.444Z,23.18
2023-06-11T11:30:29.972Z,23.76
2023-06-11T11:40:32.372Z,22.96
2023-06-11T11:50:35.368Z,23.71
2023-06-11T12:00:46.103Z,23.62
2023-06-11T12:10:49.423Z,23.58
2023-06-11T12:20:52.739Z,23.88
2023-06-11T12:30:55.146Z,23.94
2023-06-11T12:40:57.746Z,24.07
2023-06-11T12:51:00.964Z,24.75
2023-06-11T13:01:04.509Z,24.21
2023-06-11T13:11:07.110Z,24.17
2023-06-11T13:21:09.511Z,24.06
2023-06-11T13:31:12.695Z,23.60
2023-06-11T13:41:15.231Z,23.73
2023-06-11T13:51:17.646Z,24.09
2023-06-11T14:01:20.322Z,23.90
2023-06-11T14:11:25.310Z,24.10
2023-06-11T14:21:27.752Z,24.90
2023-06-11T14:31:30.164Z,23.44
2023-06-11T14:41:32.560Z,23.07
2023-06-11T14:51:35.000Z,23.46
2023-06-11T15:01:37.935Z,23.89
2023-06-11T15:11:40.326Z,23.26
2023-06-11T15:21:42.753Z,23.56
2023-06-11T15:31:45.329Z,24.26
2023-06-11T15:41:47.772Z,22.83
2023-06-11T15:51:50.209Z,22.76
2023-06-11T16:01:52.783Z,23.21
2023-06-11T16:11:55.571Z,23.21
2023-06-11T16:21:57.978Z,23.07
2023-06-11T16:32:00.506Z,22.62
2023-06-11T16:42:03.771Z,22.57
2023-06-11T16:52:06.453Z,22.65
2023-06-11T17:02:08.818Z,22.64
2023-06-11T17:12:12.503Z,21.98
